Time;durP1;ratioP1;P1;durP2;ratioP2;P2;SDS_P1;SDS_P2;PMS_P1;PMS_P2;Temp;Humidity;BMP_temperature;BMP_pressure;BME280_temperature;BME280_humidity;BME280_pressure;Samples;Min_cycle;Max_cycle;Signal;HPM_P1;HPM_P2
2023/03/05 06:51:19;;;;;;;;;23.00;19.00;;;;;6.40;65.87;101774.28;5975732;23;46475;31
2023/03/05 06:53:46;;;;;;;;;21.00;17.75;;;;;6.39;66.07;101768.97;4920272;28;45529;-74
2023/03/05 06:56:12;;;;;;;;;17.75;17.50;;;;;6.43;67.46;101773.56;4909352;28;45663;-73
2023/03/05 06:58:39;;;;;;;;;28.50;23.50;;;;;6.46;66.37;101769.38;4930487;28;45287;-74
2023/03/05 07:01:06;;;;;;;;;24.00;20.50;;;;;6.42;65.81;101766.50;4929494;28;45366;-74
2023/03/05 07:03:32;;;;;;;;;16.50;14.00;;;;;6.45;66.60;101770.19;4928269;28;45491;-74
2023/03/05 07:05:57;;;;;;;;;24.00;20.75;;;;;6.49;66.91;101776.50;4924017;28;45441;-73
2023/03/05 07:08:22;;;;;;;;;19.25;15.50;;;;;6.40;67.49;101748.00;4930101;28;45545;-74
2023/03/05 07:10:48;;;;;;;;;17.50;15.75;;;;;6.55;65.66;101773.34;4922995;28;45382;-73
2023/03/05 07:13:13;;;;;;;;;18.25;16.25;;;;;6.42;66.27;101749.00;4925416;28;45363;-75
2023/03/05 07:15:42;;;;;;;;;17.00;17.00;;;;;6.56;67.02;101762.94;4921016;28;45409;-74
2023/03/05 07:18:07;;;;;;;;;22.50;16.50;;;;;6.58;65.53;101768.25;4926272;28;45343;-75
2023/03/05 07:20:35;;;;;;;;;19.75;17.50;;;;;6.60;67.32;101766.63;4921013;28;45303;-73
2023/03/05 07:23:00;;;;;;;;;22.25;18.00;;;;;6.56;67.20;101756.78;4932156;28;45524;-73
2023/03/05 07:25:25;;;;;;;;;15.25;15.25;;;;;6.64;66.62;101763.34;4924309;28;45646;-73
2023/03/05 07:27:51;;;;;;;;;17.50;15.00;;;;;6.43;66.89;101724.56;4930925;28;45611;-73
2023/03/05 07:30:18;;;;;;;;;25.75;21.00;;;;;6.71;66.74;101765.50;4922412;28;45954;-72
2023/03/05 07:32:43;;;;;;;;;13.25;11.50;;;;;6.73;66.66;101763.84;4932714;28;45443;-69
2023/03/05 07:35:09;;;;;;;;;21.75;17.25;;;;;6.75;65.94;101769.19;4922870;28;45383;-70
2023/03/05 07:37:34;;;;;;;;;19.00;19.00;;;;;6.80;65.78;101773.88;4903457;28;45362;-70
2023/03/05 07:40:00;;;;;;;;;25.00;18.00;;;;;6.66;66.02;101756.44;4922631;28;45345;-70
2023/03/05 07:42:25;;;;;;;;;19.25;17.25;;;;;6.68;66.77;101747.84;4927765;28;45260;-70
2023/03/05 07:44:50;;;;;;;;;18.50;13.25;;;;;6.82;65.80;101777.50;4931225;28;45403;-71
2023/03/05 07:47:16;;;;;;;;;18.25;16.25;;;;;6.84;66.28;101774.97;4926988;28;45441;-71
2023/03/05 07:49:41;;;;;;;;;23.50;20.00;;;;;6.85;66.61;101769.78;4929545;28;45322;-70
2023/03/05 07:52:07;;;;;;;;;27.50;21.25;;;;;6.79;65.73;101751.06;4925899;28;45522;-70
2023/03/05 07:54:36;;;;;;;;;20.50;19.00;;;;;6.81;66.12;101759.94;4922566;28;44636;-70
2023/03/05 07:57:03;;;;;;;;;28.00;24.75;;;;;6.84;65.90;101759.19;4923457;28;45653;-71
2023/03/05 07:59:28;;;;;;;;;20.25;17.75;;;;;6.86;65.67;101761.09;4906187;28;46962;-70
2023/03/05 08:01:54;;;;;;;;;27.00;22.50;;;;;6.84;65.44;101746.97;4926871;28;45366;-69
2023/03/05 08:04:19;;;;;;;;;21.75;17.25;;;;;6.90;65.95;101759.53;4926926;28;45282;-69
2023/03/05 08:06:45;;;;;;;;;28.50;23.00;;;;;6.92;66.89;101761.44;4925726;28;45309;-70
2023/03/05 08:09:11;;;;;;;;;21.00;19.75;;;;;6.86;66.50;101757.53;4924144;28;47214;-71
2023/03/05 08:11:38;;;;;;;;;35.75;28.50;;;;;6.88;66.40;101755.91;4924557;28;45356;-70
2023/03/05 08:14:03;;;;;;;;;37.00;32.75;;;;;6.97;66.53;101755.50;4924875;28;45225;-70
2023/03/05 08:16:29;;;;;;;;;33.00;28.75;;;;;7.01;66.43;101752.22;4922730;28;45324;-70
2023/03/05 08:18:56;;;;;;;;;27.75;25.00;;;;;7.10;66.47;101763.22;4909519;28;46731;-68
2023/03/05 08:21:35;;;;;;;;;29.00;21.50;;;;;7.17;66.32;101754.88;4917755;28;45302;-69
2023/03/05 08:24:06;;;;;;;;;28.00;22.00;;;;;7.17;65.75;101754.88;4930479;28;45454;-69
2023/03/05 08:26:37;;;;;;;;;18.25;17.75;;;;;7.21;65.14;101755.94;4922082;28;45324;-71
2023/03/05 08:29:03;;;;;;;;;22.75;20.00;;;;;7.21;65.69;101753.28;4921471;28;45383;-69
2023/03/05 08:31:29;;;;;;;;;25.50;21.75;;;;;7.25;66.43;101760.50;4908249;28;45380;-71
2023/03/05 08:33:56;;;;;;;;;25.75;21.25;;;;;7.16;65.87;101734.63;4932412;28;45313;-71
2023/03/05 08:36:22;;;;;;;;;22.25;20.25;;;;;7.23;64.80;101743.78;4923810;28;45584;-71
2023/03/05 08:38:49;;;;;;;;;27.50;22.25;;;;;7.26;65.70;101744.81;4932091;28;45423;-70
2023/03/05 08:41:15;;;;;;;;;28.00;24.50;;;;;7.27;65.24;101745.72;4923932;28;45356;-71
2023/03/05 08:43:41;;;;;;;;;33.50;26.50;;;;;7.23;65.38;101722.72;4933317;28;45412;-70
2023/03/05 08:46:07;;;;;;;;;22.00;18.50;;;;;7.41;65.84;101749.97;4922953;28;45304;-70
2023/03/05 08:48:33;;;;;;;;;32.50;28.00;;;;;7.40;65.14;101737.66;4932079;28;45469;-70
2023/03/05 08:51:11;;;;;;;;;36.50;25.25;;;;;7.50;65.24;101746.91;4922551;28;45075;-70
2023/03/05 08:53:36;;;;;;;;;35.00;28.75;;;;;7.40;65.10;101722.78;4925592;28;45336;-70
2023/03/05 08:56:02;;;;;;;;;24.75;22.25;;;;;7.56;64.70;101742.91;4923841;28;45248;-71
2023/03/05 08:58:28;;;;;;;;;28.50;24.50;;;;;7.46;64.74;101727.47;4905815;28;47599;-70
2023/03/05 09:00:53;;;;;;;;;29.25;25.50;;;;;7.44;65.23;101708.03;4920700;28;45419;-70
2023/03/05 09:03:18;;;;;;;;;25.00;21.00;;;;;7.70;64.90;101742.69;4905862;28;45404;-70
2023/03/05 09:05:44;;;;;;;;;17.75;16.50;;;;;7.72;64.65;101736.66;4921663;28;45402;-69
2023/03/05 09:08:09;;;;;;;;;24.00;22.25;;;;;7.73;64.73;101725.34;4927876;28;46635;-69
2023/03/05 09:10:35;;;;;;;;;33.00;24.25;;;;;7.73;63.97;101712.19;4921506;28;45331;-69
2023/03/05 09:13:00;;;;;;;;;26.25;21.75;;;;;7.81;63.88;101716.09;4910981;28;45793;-70
2023/03/05 09:15:25;;;;;;;;;25.75;23.50;;;;;7.95;63.98;101724.66;4921397;28;45521;-70
2023/03/05 09:17:52;;;;;;;;;23.75;20.25;;;;;8.01;63.84;101730.25;4925300;28;46348;-70
2023/03/05 09:20:17;;;;;;;;;33.25;22.50;;;;;8.08;63.02;101727.09;4921375;28;45212;-71
2023/03/05 09:22:43;;;;;;;;;24.75;19.25;;;;;8.18;63.46;101727.56;4908443;28;45338;-71
2023/03/05 09:25:10;;;;;;;;;19.75;19.00;;;;;8.26;62.77;101731.44;4921299;28;45431;-71
2023/03/05 09:27:36;;;;;;;;;18.50;14.00;;;;;8.18;62.89;101711.75;4924883;28;45687;-71
2023/03/05 09:30:02;;;;;;;;;23.75;20.25;;;;;8.34;62.23;101723.91;4920684;28;45253;-71
2023/03/05 09:32:28;;;;;;;;;20.50;15.00;;;;;8.28;62.54;101714.88;4925238;28;45323;-70
2023/03/05 09:34:53;;;;;;;;;17.50;16.25;;;;;8.29;61.69;101710.53;4920923;28;45466;-70
2023/03/05 09:37:18;;;;;;;;;24.50;18.25;;;;;8.38;62.08;101712.72;4923917;28;47975;-70
2023/03/05 09:39:43;;;;;;;;;29.00;19.25;;;;;7.85;61.96;101615.41;4923900;28;45351;-70
2023/03/05 09:42:23;;;;;;;;;26.50;24.75;;;;;8.56;62.16;101710.06;4927841;28;45306;-69
2023/03/05 09:45:15;;;;;;;;;25.00;18.00;;;;;8.51;62.25;101705.50;4905713;28;45964;-69
2023/03/05 09:48:03;;;;;;;;;22.25;19.75;;;;;8.59;62.45;101712.84;4928871;28;45314;-70
2023/03/05 09:50:38;;;;;;;;;23.00;18.00;;;;;8.59;61.72;101699.66;4920110;28;45242;-70
2023/03/05 09:53:07;;;;;;;;;23.25;22.00;;;;;8.66;61.85;101701.78;4930656;28;45486;-70
2023/03/05 09:55:41;;;;;;;;;20.25;19.75;;;;;8.71;61.91;101695.88;4921151;28;45534;-69
2023/03/05 09:58:17;;;;;;;;;20.75;16.75;;;;;8.70;61.10;101691.41;4928716;28;46472;-69
2023/03/05 10:00:49;;;;;;;;;38.25;21.50;;;;;8.64;60.63;101663.91;4920529;28;45307;-70
2023/03/05 10:03:20;;;;;;;;;16.00;16.00;;;;;8.79;61.16;101676.88;4933610;28;45235;-69
2023/03/05 10:05:57;;;;;;;;;24.25;15.75;;;;;8.80;60.17;101684.84;4921008;28;45347;-70
2023/03/05 10:08:30;;;;;;;;;19.50;18.50;;;;;8.84;60.38;101670.06;4920772;28;46242;-70
2023/03/05 10:10:58;;;;;;;;;19.00;16.00;;;;;8.86;60.38;101674.59;4920358;28;45276;-70
2023/03/05 10:13:25;;;;;;;;;28.00;21.50;;;;;8.90;61.51;101675.63;4922645;28;45415;-70
2023/03/05 10:16:30;;;;;;;;;31.50;23.00;;;;;8.76;60.55;101640.72;4920488;28;45394;-69
2023/03/05 10:19:34;;;;;;;;;26.00;20.50;;;;;8.91;60.29;101666.91;4924878;28;45280;-70
2023/03/05 10:22:18;;;;;;;;;24.50;19.75;;;;;8.79;61.29;101650.50;4896627;28;45352;-70
2023/03/05 10:25:01;;;;;;;;;20.00;17.75;;;;;8.83;61.18;101668.28;4923718;28;45578;-70
2023/03/05 10:28:06;;;;;;;;;18.25;15.75;;;;;8.80;61.08;101658.50;4913655;28;45626;-69
2023/03/05 10:30:56;;;;;;;;;24.75;22.50;;;;;8.81;61.50;101657.66;4923837;28;45367;-70
2023/03/05 10:33:40;;;;;;;;;25.75;21.75;;;;;8.80;60.99;101653.22;4928924;28;45272;-70
2023/03/05 10:36:24;;;;;;;;;28.25;23.25;;;;;8.79;60.63;101648.75;4924684;28;45438;-69
2023/03/05 10:38:58;;;;;;;;;30.00;22.00;;;;;8.84;60.24;101654.25;4922450;28;45327;-70
2023/03/05 10:41:55;;;;;;;;;20.25;17.25;;;;;8.76;59.90;101647.72;4926097;28;45528;-69
2023/03/05 10:44:46;;;;;;;;;21.75;16.00;;;;;8.79;60.14;101638.22;4910545;28;45254;-69
2023/03/05 10:47:20;;;;;;;;;19.25;17.75;;;;;8.84;60.30;101641.06;4908538;28;45459;-69
2023/03/05 10:49:51;;;;;;;;;26.50;19.25;;;;;8.82;60.01;101634.81;4924049;28;45342;-70
2023/03/05 10:52:27;;;;;;;;;19.00;17.25;;;;;8.82;60.11;101629.53;4911287;28;47823;-69
2023/03/05 10:54:52;;;;;;;;;21.50;19.00;;;;;8.89;59.77;101645.72;4923148;28;45578;-70
2023/03/05 10:57:22;;;;;;;;;17.75;16.75;;;;;8.94;59.96;101640.66;4929384;28;45404;-70
2023/03/05 10:59:57;;;;;;;;;16.25;14.50;;;;;8.98;58.93;101634.66;4924872;28;45460;-69
2023/03/05 11:02:23;;;;;;;;;19.00;14.75;;;;;8.92;60.14;101632.66;4912603;28;47205;-69
2023/03/05 11:04:49;;;;;;;;;16.50;15.25;;;;;8.91;58.60;101617.69;4923150;28;45250;-70
2023/03/05 11:07:14;;;;;;;;;15.00;15.00;;;;;9.01;59.18;101633.91;4924273;28;45471;-69
2023/03/05 11:10:01;;;;;;;;;15.50;13.50;;;;;8.99;59.43;101625.94;4922960;28;46222;-69
2023/03/05 11:12:37;;;;;;;;;18.00;15.00;;;;;8.99;58.91;101612.75;4927591;28;46116;-70
2023/03/05 11:15:08;;;;;;;;;17.75;16.25;;;;;9.03;59.74;101622.59;4927185;28;45379;-69
2023/03/05 11:17:37;;;;;;;;;17.25;15.00;;;;;9.01;58.14;101616.34;4909876;28;45434;-71
2023/03/05 11:20:30;;;;;;;;;15.25;11.25;;;;;9.01;58.89;101626.00;4926582;28;45460;-68
2023/03/05 11:23:10;;;;;;;;;23.00;21.00;;;;;9.01;58.66;101615.44;4912931;28;47391;-68
2023/03/05 11:25:52;;;;;;;;;16.50;13.75;;;;;8.93;58.19;101602.84;4922891;28;45317;-67
2023/03/05 11:28:20;;;;;;;;;14.00;10.25;;;;;9.00;58.66;101617.19;4924216;28;45237;-68
2023/03/05 11:31:18;;;;;;;;;11.75;10.25;;;;;8.98;58.34;101610.03;4921521;28;45302;-68
2023/03/05 11:34:00;;;;;;;;;11.75;10.50;;;;;8.90;58.40;101593.88;4923806;28;45233;-67
2023/03/05 11:36:25;;;;;;;;;22.75;15.75;;;;;8.93;58.16;101602.84;4924845;28;45320;-68
2023/03/05 11:39:08;;;;;;;;;16.00;12.25;;;;;8.93;58.39;101599.28;4923980;28;45466;-68
2023/03/05 11:41:46;;;;;;;;;11.75;10.50;;;;;8.93;58.13;101597.56;4905500;28;47265;-68
2023/03/05 11:44:16;;;;;;;;;18.50;17.00;;;;;8.82;57.96;101569.84;4922244;28;45183;-68
2023/03/05 11:46:46;;;;;;;;;16.00;14.25;;;;;8.91;57.37;101579.88;4907910;28;45324;-68
2023/03/05 11:49:17;;;;;;;;;13.25;11.75;;;;;8.86;58.17;101569.13;4909009;28;45345;-69
2023/03/05 11:52:01;;;;;;;;;15.25;14.50;;;;;9.02;58.15;101586.53;4924282;28;45423;-69
2023/03/05 11:54:38;;;;;;;;;17.50;13.25;;;;;9.04;56.92;101583.94;4922615;28;46222;-69
2023/03/05 11:57:05;;;;;;;;;15.50;12.00;;;;;9.02;58.11;101575.06;4910528;28;45127;-68
2023/03/05 11:59:38;;;;;;;;;11.25;10.25;;;;;9.02;56.83;101575.97;4927422;28;45415;-69
2023/03/05 12:02:22;;;;;;;;;11.00;9.25;;;;;8.88;57.50;101550.75;4925815;28;45435;-69
2023/03/05 12:04:49;;;;;;;;;21.50;17.75;;;;;9.00;57.80;101563.56;4920825;28;47216;-69
2023/03/05 12:07:20;;;;;;;;;15.00;13.25;;;;;8.99;57.27;101567.94;4926808;28;45426;-69
2023/03/05 12:09:49;;;;;;;;;10.25;9.00;;;;;9.01;57.22;101558.34;4922058;28;45343;-69
2023/03/05 12:12:37;;;;;;;;;15.50;10.50;;;;;9.01;56.71;101554.78;4923852;28;45816;-68
2023/03/05 12:15:11;;;;;;;;;12.00;11.00;;;;;9.03;56.39;101554.03;4922379;28;46139;-68
2023/03/05 12:17:41;;;;;;;;;15.00;11.50;;;;;9.01;56.43;101546.88;4923956;28;45423;-68
2023/03/05 12:20:18;;;;;;;;;14.75;10.00;;;;;8.98;56.10;101547.66;4924609;28;45337;-68
2023/03/05 12:22:44;;;;;;;;;12.75;11.50;;;;;8.97;57.80;101532.69;4923532;28;45375;-68
2023/03/05 12:25:45;;;;;;;;;18.00;16.50;;;;;9.05;56.47;101544.47;4921302;28;46193;-69
2023/03/05 12:28:30;;;;;;;;;14.25;11.50;;;;;9.01;55.99;101524.06;4913316;28;45335;-70
2023/03/05 12:30:58;;;;;;;;;20.25;16.50;;;;;9.08;56.31;101512.03;4906761;28;45394;-69
2023/03/05 12:33:42;;;;;;;;;21.50;14.75;;;;;9.10;56.83;101523.53;4925425;28;45268;-69
2023/03/05 12:36:16;;;;;;;;;23.25;19.25;;;;;9.14;56.42;101525.47;4911755;28;45312;-70
2023/03/05 12:38:50;;;;;;;;;9.75;8.75;;;;;9.15;55.76;101514.09;4898689;28;45357;-70
2023/03/05 12:41:22;;;;;;;;;12.00;10.50;;;;;9.17;55.89;101512.41;4922679;28;45490;-70
2023/03/05 12:44:05;;;;;;;;;29.00;25.00;;;;;9.11;55.88;101504.25;4920986;28;45457;-70
2023/03/05 12:47:23;;;;;;;;;20.75;16.75;;;;;9.05;55.23;101497.00;4925060;28;46182;-70
2023/03/05 12:49:49;;;;;;;;;43.50;32.50;;;;;9.04;55.70;101483.72;4878786;28;45295;-70
2023/03/05 12:52:23;;;;;;;;;16.00;13.50;;;;;9.00;55.73;101484.44;4927633;28;45154;-70
2023/03/05 12:55:18;;;;;;;;;17.75;16.75;;;;;8.98;56.11;101480.84;4921774;28;46186;-70
2023/03/05 12:57:45;;;;;;;;;51.75;42.25;;;;;8.88;54.79;101477.81;4905758;28;47701;-70
2023/03/05 13:00:27;;;;;;;;;16.00;11.75;;;;;8.87;54.90;101473.38;4920485;28;45440;-70
2023/03/05 13:02:59;;;;;;;;;15.50;15.50;;;;;8.84;55.20;101461.81;4921654;28;45453;-70
2023/03/05 13:05:34;;;;;;;;;10.00;8.25;;;;;8.89;55.54;101458.53;4920432;28;45342;-70
2023/03/05 13:08:24;;;;;;;;;23.25;16.00;;;;;8.87;55.82;101454.91;4927114;28;46225;-70
2023/03/05 13:10:57;;;;;;;;;15.25;13.25;;;;;8.84;54.09;101452.16;4919020;28;45316;-71
2023/03/05 13:13:24;;;;;;;;;16.50;12.75;;;;;8.80;55.37;101439.69;4903966;28;45402;-71
2023/03/05 13:15:51;;;;;;;;;21.25;14.75;;;;;8.81;54.67;101446.75;4916094;28;45310;-71
2023/03/05 13:18:26;;;;;;;;;25.50;17.25;;;;;8.71;54.85;101431.38;4924686;28;46190;-71
2023/03/05 13:21:03;;;;;;;;;16.50;15.25;;;;;8.78;55.35;101433.44;4920305;28;45312;-71
2023/03/05 13:23:29;;;;;;;;;22.00;18.75;;;;;8.73;54.48;101420.06;4920232;28;45403;-72
2023/03/05 13:26:02;;;;;;;;;37.50;34.25;;;;;8.83;55.23;101428.38;4921342;28;45555;-72
2023/03/05 13:28:28;;;;;;;;;17.50;14.00;;;;;8.87;55.10;101418.00;4925282;28;45405;-72
2023/03/05 13:30:58;;;;;;;;;17.25;14.75;;;;;8.91;54.48;101425.22;4919843;28;45321;-71
2023/03/05 13:33:28;;;;;;;;;18.25;13.25;;;;;8.92;53.52;101420.84;4924741;28;45265;-71
2023/03/05 13:35:54;;;;;;;;;11.50;11.50;;;;;8.93;53.04;101410.38;4920209;28;44815;-71
2023/03/05 13:38:24;;;;;;;;;14.00;11.25;;;;;8.96;52.01;101412.22;4922598;28;45528;-71
2023/03/05 13:41:14;;;;;;;;;15.50;11.50;;;;;9.03;54.31;101400.19;4920613;28;45508;-72
2023/03/05 13:43:53;;;;;;;;;15.50;10.50;;;;;9.03;54.47;101397.56;4927318;28;45341;-72
2023/03/05 13:46:23;;;;;;;;;13.50;13.50;;;;;9.08;52.16;101390.72;4922004;28;45242;-70
2023/03/05 13:48:49;;;;;;;;;16.00;11.00;;;;;9.15;53.01;101387.47;4928843;28;45524;-70
2023/03/05 13:51:14;;;;;;;;;17.25;15.50;;;;;9.17;54.49;101386.69;4902827;28;45921;-70
2023/03/05 13:53:40;;;;;;;;;24.50;18.25;;;;;9.04;53.01;101354.50;4920364;28;45522;-69
2023/03/05 13:56:11;;;;;;;;;18.25;16.75;;;;;9.16;51.77;101378.75;4925181;28;45489;-70
2023/03/05 13:58:56;;;;;;;;;11.00;11.00;;;;;9.16;53.46;101368.19;4906396;28;47007;-71
2023/03/05 14:01:41;;;;;;;;;11.75;11.75;;;;;9.19;53.61;101368.31;4925803;28;45274;-71
2023/03/05 14:04:26;;;;;;;;;17.25;10.50;;;;;9.22;52.64;101367.53;4934717;28;45280;-70
2023/03/05 14:07:00;;;;;;;;;26.00;21.50;;;;;9.26;53.69;101361.53;4901465;28;46698;-70
2023/03/05 14:09:37;;;;;;;;;20.25;15.75;;;;;9.25;51.82;101358.00;4910811;28;47522;-70
2023/03/05 14:12:20;;;;;;;;;17.00;11.00;;;;;9.19;52.35;101342.84;4928837;28;45560;-70
2023/03/05 14:14:46;;;;;;;;;18.00;15.50;;;;;9.25;51.45;101342.16;4924572;28;45551;-70
2023/03/05 14:17:35;;;;;;;;;12.75;11.25;;;;;9.36;52.46;101350.50;4927980;28;45269;-70
2023/03/05 14:20:08;;;;;;;;;22.00;16.00;;;;;9.41;52.79;101346.31;4921750;28;47702;-70
2023/03/05 14:22:36;;;;;;;;;19.00;14.25;;;;;9.43;52.21;101338.44;4927438;28;45530;-71
2023/03/05 14:25:06;;;;;;;;;21.25;19.00;;;;;9.48;52.58;101332.47;4923379;28;45364;-71
2023/03/05 14:27:35;;;;;;;;;16.50;13.75;;;;;9.47;52.69;101325.41;4927498;28;45359;-70
2023/03/05 14:30:05;;;;;;;;;20.75;18.00;;;;;9.51;52.00;101322.03;4926187;28;45549;-70
2023/03/05 14:32:33;;;;;;;;;16.75;16.75;;;;;9.51;52.27;101306.19;4926270;28;45448;-70
2023/03/05 14:35:00;;;;;;;;;16.50;13.00;;;;;9.54;50.78;101302.78;4908764;28;44861;-70
2023/03/05 14:37:40;;;;;;;;;11.25;11.00;;;;;9.69;51.85;101308.63;4924920;28;45140;-70
2023/03/05 14:40:29;;;;;;;;;10.25;9.00;;;;;9.77;51.17;101306.25;4924298;28;45455;-70
2023/03/05 14:43:02;;;;;;;;;12.25;12.25;;;;;9.78;51.38;101293.09;4915156;28;45451;-70
2023/03/05 14:45:31;;;;;;;;;13.00;9.50;;;;;9.83;51.68;101293.25;4923303;28;45416;-69
2023/03/05 14:47:59;;;;;;;;;15.25;12.00;;;;;9.77;51.16;101279.84;4931555;28;45381;-70
2023/03/05 14:50:31;;;;;;;;;25.00;19.00;;;;;9.82;51.19;101280.91;4922182;28;45358;-70
2023/03/05 14:53:01;;;;;;;;;26.75;22.00;;;;;9.84;51.89;101274.84;4929478;28;45470;-70
2023/03/05 14:55:30;;;;;;;;;21.00;19.25;;;;;9.86;50.63;101259.94;4923051;28;45340;-71
2023/03/05 14:58:10;;;;;;;;;11.50;11.00;;;;;9.86;51.42;101249.38;4910087;28;45575;-70
2023/03/05 15:00:36;;;;;;;;;7.00;6.25;;;;;10.02;50.98;101263.09;4921617;28;45445;-70
2023/03/05 15:03:01;;;;;;;;;12.00;11.50;;;;;9.98;50.96;101254.19;4929668;28;45419;-70
2023/03/05 15:05:27;;;;;;;;;12.00;10.00;;;;;9.86;51.06;101228.28;4930370;28;45281;-70
2023/03/05 15:07:53;;;;;;;;;16.25;12.75;;;;;9.91;51.27;101233.69;4927173;28;45303;-70
2023/03/05 15:10:21;;;;;;;;;15.75;14.00;;;;;9.97;49.47;101241.84;4929971;28;45693;-70
2023/03/05 15:12:49;;;;;;;;;24.25;22.50;;;;;9.82;51.29;101233.38;4927445;28;45447;-70
2023/03/05 15:15:16;;;;;;;;;11.00;7.50;;;;;9.85;50.43;101233.47;4929363;28;45323;-70
2023/03/05 15:17:46;;;;;;;;;15.75;9.25;;;;;9.86;50.02;101223.00;4927592;28;45249;-70
2023/03/05 15:20:15;;;;;;;;;13.50;12.00;;;;;9.95;49.88;101224.16;4923164;28;46219;-70
2023/03/05 15:22:41;;;;;;;;;12.75;11.50;;;;;9.97;52.43;101227.72;4906477;28;45229;-70
2023/03/05 15:25:06;;;;;;;;;14.25;13.00;;;;;9.97;50.64;101222.44;4921634;28;45205;-70
2023/03/05 15:27:32;;;;;;;;;11.00;9.25;;;;;9.99;50.07;101219.00;4925580;28;45772;-71
2023/03/05 15:29:58;;;;;;;;;16.75;12.75;;;;;9.97;49.95;101209.22;4922432;28;45482;-70
2023/03/05 15:32:29;;;;;;;;;11.00;9.00;;;;;10.03;51.93;101214.75;4924518;28;45468;-70
2023/03/05 15:34:54;;;;;;;;;15.75;15.25;;;;;10.02;49.13;101210.28;4925395;28;45245;-71
2023/03/05 15:37:20;;;;;;;;;12.75;11.25;;;;;9.94;49.01;101203.84;4929000;28;45245;-71
2023/03/05 15:39:45;;;;;;;;;11.50;11.50;;;;;9.97;50.54;101199.59;4925446;28;46015;-70
2023/03/05 15:42:10;;;;;;;;;13.00;9.00;;;;;9.81;49.32;101181.44;4924963;28;50459;-70
2023/03/05 15:44:38;;;;;;;;;29.75;26.25;;;;;9.92;50.69;101205.56;4922382;28;45170;-70
2023/03/05 15:47:03;;;;;;;;;22.75;20.00;;;;;9.85;49.06;101205.31;4926202;28;45550;-70
2023/03/05 15:49:28;;;;;;;;;13.50;13.50;;;;;9.87;49.27;101205.41;4910744;28;45970;-70
2023/03/05 15:51:55;;;;;;;;;37.75;36.50;;;;;9.78;49.05;101198.06;4924050;28;44858;-70
2023/03/05 15:54:21;;;;;;;;;14.50;13.00;;;;;9.80;50.97;101200.75;4911965;28;45416;-70
2023/03/05 15:56:48;;;;;;;;;23.25;17.00;;;;;9.70;48.54;101189.00;4903241;28;45550;-70
2023/03/05 15:59:13;;;;;;;;;18.00;13.50;;;;;9.57;50.73;101177.09;4929218;28;46410;-69
2023/03/05 16:01:44;;;;;;;;;26.00;21.75;;;;;9.59;49.11;101180.69;4925649;28;45324;-69
2023/03/05 16:04:09;;;;;;;;;29.50;25.00;;;;;9.64;50.08;101194.06;4926361;28;45275;-69
2023/03/05 16:06:35;;;;;;;;;12.75;11.75;;;;;9.53;49.25;101182.25;4924912;28;45317;-70
2023/03/05 16:09:03;;;;;;;;;16.75;12.00;;;;;9.48;48.72;101173.25;4930856;28;45445;-70
2023/03/05 16:11:32;;;;;;;;;12.00;10.25;;;;;9.57;49.60;101190.28;4925284;28;45298;-70
2023/03/05 16:14:01;;;;;;;;;15.25;12.75;;;;;9.52;49.76;101185.69;4930504;28;45213;-70
2023/03/05 16:16:27;;;;;;;;;21.75;18.25;;;;;9.47;49.89;101177.66;4907074;28;45331;-70
2023/03/05 16:18:53;;;;;;;;;8.75;7.00;;;;;9.41;50.98;101174.81;4928251;28;45324;-67
2023/03/05 16:21:19;;;;;;;;;18.00;16.00;;;;;9.28;49.41;101154.09;4907050;28;45326;-68
2023/03/05 16:23:45;;;;;;;;;24.00;22.25;;;;;9.33;49.64;101165.72;4926508;28;45552;-68
2023/03/05 16:26:10;;;;;;;;;36.50;33.00;;;;;9.31;50.38;101170.03;4906733;28;46744;-68
2023/03/05 16:28:36;;;;;;;;;34.25;27.75;;;;;9.19;49.03;101152.94;4914034;28;47171;-71
2023/03/05 16:31:01;;;;;;;;;20.00;19.50;;;;;9.15;49.19;101140.47;4922701;28;45247;-70
2023/03/05 16:33:27;;;;;;;;;15.50;13.00;;;;;9.11;50.34;101146.47;4926625;28;45380;-71
2023/03/05 16:36:17;;;;;;;;;23.50;20.00;;;;;9.07;50.40;101143.66;4921677;28;45269;-70
2023/03/05 16:38:42;;;;;;;;;19.50;16.25;;;;;9.09;51.37;101155.19;4923760;28;46118;-70
2023/03/05 16:41:07;;;;;;;;;21.00;17.00;;;;;9.04;51.37;101151.47;4922704;28;45488;-70
2023/03/05 16:43:33;;;;;;;;;46.00;36.75;;;;;8.94;51.34;101151.16;4932856;28;45555;-70
2023/03/05 16:45:58;;;;;;;;;55.00;43.00;;;;;8.92;52.51;101142.28;4922540;28;45280;-70
2023/03/05 16:48:23;;;;;;;;;29.50;24.25;;;;;8.81;52.11;101141.00;4929149;28;45448;-70
2023/03/05 16:50:49;;;;;;;;;38.25;33.50;;;;;8.66;51.74;101122.00;4921632;28;45332;-70
2023/03/05 16:53:14;;;;;;;;;36.25;31.50;;;;;8.67;52.24;101134.31;4914867;28;50368;-70
2023/03/05 16:55:39;;;;;;;;;14.75;12.25;;;;;8.44;51.89;101101.84;4921891;28;45502;-70
2023/03/05 16:58:05;;;;;;;;;35.25;32.25;;;;;8.42;52.41;101109.66;4928863;28;46538;-70
2023/03/05 17:00:30;;;;;;;;;23.25;19.75;;;;;8.45;52.55;101116.78;4921443;28;45433;-70
2023/03/05 17:02:55;;;;;;;;;24.75;23.50;;;;;8.41;52.52;101102.63;4910440;28;45272;-70
2023/03/05 17:05:21;;;;;;;;;18.00;16.75;;;;;8.33;52.56;101095.22;4929825;28;45298;-70
2023/03/05 17:07:46;;;;;;;;;18.50;17.75;;;;;8.38;52.90;101101.59;4908480;28;45743;-70
2023/03/05 17:10:12;;;;;;;;;28.75;18.00;;;;;8.40;53.19;101114.00;4929458;28;45242;-70
2023/03/05 17:12:38;;;;;;;;;30.75;25.00;;;;;8.31;52.96;101103.06;4925960;28;45475;-70
2023/03/05 17:15:04;;;;;;;;;20.00;17.25;;;;;8.35;53.03;101112.91;4928356;28;45218;-71
2023/03/05 17:17:30;;;;;;;;;36.25;27.75;;;;;8.28;53.15;101103.84;4924905;28;45325;-71
2023/03/05 17:19:56;;;;;;;;;31.00;27.50;;;;;8.33;53.22;101106.66;4926534;28;44869;-68
2023/03/05 17:22:21;;;;;;;;;15.00;13.75;;;;;8.22;52.98;101085.19;4925528;28;45336;-69
2023/03/05 17:24:46;;;;;;;;;15.00;14.50;;;;;8.24;52.87;101093.16;4924892;28;45316;-69
2023/03/05 17:27:12;;;;;;;;;18.00;15.75;;;;;8.22;53.50;101100.97;4905339;28;47197;-69
2023/03/05 17:29:38;;;;;;;;;17.25;12.50;;;;;8.18;53.26;101109.59;4918602;28;45434;-71
2023/03/05 17:32:03;;;;;;;;;18.75;14.50;;;;;8.15;53.32;101101.59;4918717;28;45796;-69
2023/03/05 17:34:29;;;;;;;;;15.50;15.50;;;;;8.07;53.20;101090.75;4919862;28;45353;-71
2023/03/05 17:36:54;;;;;;;;;24.00;17.50;;;;;8.11;53.69;101104.94;4921050;28;44993;-69
2023/03/05 17:39:19;;;;;;;;;17.00;17.00;;;;;8.08;53.97;101104.81;4920974;28;45411;-69
2023/03/05 17:41:45;;;;;;;;;22.00;16.00;;;;;8.16;53.38;101113.03;4906544;28;45370;-69
2023/03/05 17:44:12;;;;;;;;;15.75;14.50;;;;;8.10;53.37;101097.88;4920206;28;45428;-68
2023/03/05 17:46:37;;;;;;;;;15.75;15.00;;;;;8.09;53.12;101093.44;4920948;28;46314;-69
2023/03/05 17:49:03;;;;;;;;;22.25;18.75;;;;;8.08;53.43;101097.81;4920246;28;45416;-71
2023/03/05 17:51:28;;;;;;;;;22.00;18.50;;;;;8.12;54.15;101101.44;4913108;28;46024;-72
2023/03/05 17:53:54;;;;;;;;;22.00;16.75;;;;;8.06;53.30;101083.69;4920754;28;45495;-71
2023/03/05 17:56:20;;;;;;;;;20.25;15.25;;;;;8.08;53.50;101096.91;4920546;28;45319;-71
2023/03/05 17:58:46;;;;;;;;;16.00;16.00;;;;;8.09;53.00;101093.44;4920799;28;44777;-71
2023/03/05 18:01:30;;;;;;;;;41.00;37.00;;;;;8.06;53.55;101093.31;4921664;28;45333;-71
2023/03/05 18:03:56;;;;;;;;;32.50;25.50;;;;;8.03;53.38;101096.72;4935277;28;45312;-73
2023/03/05 18:06:22;;;;;;;;;22.75;22.75;;;;;7.99;53.21;101094.81;4923385;28;45466;-72
2023/03/05 18:08:48;;;;;;;;;24.50;19.75;;;;;7.98;52.94;101087.78;4915062;28;45506;-72
2023/03/05 18:11:13;;;;;;;;;49.25;38.25;;;;;7.97;53.25;101093.84;4923339;28;45437;-72
2023/03/05 18:13:39;;;;;;;;;33.00;31.50;;;;;7.96;53.32;101089.44;4926482;28;45471;-73
2023/03/05 18:16:05;;;;;;;;;30.50;27.25;;;;;7.98;53.45;101097.38;4922317;28;45220;-72
2023/03/05 18:18:30;;;;;;;;;32.50;28.25;;;;;7.96;53.58;101083.28;4928689;28;45543;-72
2023/03/05 18:20:56;;;;;;;;;25.00;25.00;;;;;7.91;53.96;101082.19;4921577;28;45537;-72
2023/03/05 18:23:21;;;;;;;;;23.00;20.25;;;;;7.94;53.62;101100.75;4929154;28;45237;-72